sensor_id;sensor_type;location;lat;lon;timestamp;temperature;humidity
25949;DHT22;13961;51.178;4.448;2023-03-14T00:02:02;11.50;99.90
25949;DHT22;13961;51.178;4.448;2023-03-14T00:04:27;11.50;99.90
25949;DHT22;13961;51.178;4.448;2023-03-14T00:06:53;11.70;99.90
25949;DHT22;13961;51.178;4.448;2023-03-14T00:09:19;11.80;99.90
25949;DHT22;13961;51.178;4.448;2023-03-14T00:11:44;11.80;99.90
25949;DHT22;13961;51.178;4.448;2023-03-14T00:14:11;11.80;99.90
25949;DHT22;13961;51.178;4.448;2023-03-14T00:16:37;11.80;99.90
25949;DHT22;13961;51.178;4.448;2023-03-14T00:19:03;11.90;99.90
25949;DHT22;13961;51.178;4.448;2023-03-14T00:21:28;11.80;99.90
25949;DHT22;13961;51.178;4.448;2023-03-14T00:23:54;11.80;99.90
25949;DHT22;13961;51.178;4.448;2023-03-14T00:26:21;11.90;99.90
25949;DHT22;13961;51.178;4.448;2023-03-14T00:28:51;12.00;99.90
25949;DHT22;13961;51.178;4.448;2023-03-14T00:31:17;12.00;99.90
25949;DHT22;13961;51.178;4.448;2023-03-14T00:33:43;11.90;99.90
25949;DHT22;13961;51.178;4.448;2023-03-14T00:36:15;11.70;99.90
25949;DHT22;13961;51.178;4.448;2023-03-14T00:38:42;11.70;99.90
25949;DHT22;13961;51.178;4.448;2023-03-14T00:41:13;11.70;99.90
25949;DHT22;13961;51.178;4.448;2023-03-14T00:43:39;11.80;99.90
25949;DHT22;13961;51.178;4.448;2023-03-14T00:46:06;11.90;99.90
25949;DHT22;13961;51.178;4.448;2023-03-14T00:48:32;11.90;99.90
25949;DHT22;13961;51.178;4.448;2023-03-14T00:50:58;11.90;99.90
25949;DHT22;13961;51.178;4.448;2023-03-14T00:53:24;11.80;99.90
25949;DHT22;13961;51.178;4.448;2023-03-14T00:55:50;11.90;99.90
25949;DHT22;13961;51.178;4.448;2023-03-14T00:58:17;11.90;99.90
25949;DHT22;13961;51.178;4.448;2023-03-14T01:00:43;12.00;99.90
25949;DHT22;13961;51.178;4.448;2023-03-14T01:03:10;11.90;99.90
25949;DHT22;13961;51.178;4.448;2023-03-14T01:05:37;11.70;99.90
25949;DHT22;13961;51.178;4.448;2023-03-14T01:08:03;11.80;99.90
25949;DHT22;13961;51.178;4.448;2023-03-14T01:10:29;11.90;99.90
25949;DHT22;13961;51.178;4.448;2023-03-14T01:12:55;11.80;99.90
25949;DHT22;13961;51.178;4.448;2023-03-14T01:15:21;11.80;99.90
25949;DHT22;13961;51.178;4.448;2023-03-14T01:17:47;11.80;99.90
25949;DHT22;13961;51.178;4.448;2023-03-14T01:20:14;11.80;99.90
25949;DHT22;13961;51.178;4.448;2023-03-14T01:22:41;11.80;99.90
25949;DHT22;13961;51.178;4.448;2023-03-14T01:25:09;11.70;99.90
25949;DHT22;13961;51.178;4.448;2023-03-14T01:27:38;11.60;99.90
25949;DHT22;13961;51.178;4.448;2023-03-14T01:30:04;11.60;99.90
25949;DHT22;13961;51.178;4.448;2023-03-14T01:32:30;11.50;99.90
25949;DHT22;13961;51.178;4.448;2023-03-14T01:34:56;11.40;99.90
25949;DHT22;13961;51.178;4.448;2023-03-14T01:37:22;11.50;99.90
25949;DHT22;13961;51.178;4.448;2023-03-14T01:39:48;11.50;99.90
25949;DHT22;13961;51.178;4.448;2023-03-14T01:42:14;11.60;99.90
25949;DHT22;13961;51.178;4.448;2023-03-14T01:44:58;11.60;99.90
25949;DHT22;13961;51.178;4.448;2023-03-14T01:47:24;11.60;99.90
25949;DHT22;13961;51.178;4.448;2023-03-14T01:49:59;11.50;99.90
25949;DHT22;13961;51.178;4.448;2023-03-14T01:52:31;11.50;99.90
25949;DHT22;13961;51.178;4.448;2023-03-14T01:55:06;11.50;99.90
25949;DHT22;13961;51.178;4.448;2023-03-14T01:57:56;11.50;99.90
25949;DHT22;13961;51.178;4.448;2023-03-14T02:00:24;11.60;99.90
25949;DHT22;13961;51.178;4.448;2023-03-14T02:03:05;11.60;99.90
25949;DHT22;13961;51.178;4.448;2023-03-14T02:05:34;11.60;99.90
25949;DHT22;13961;51.178;4.448;2023-03-14T02:08:01;11.60;99.90
25949;DHT22;13961;51.178;4.448;2023-03-14T02:10:30;11.50;99.90
25949;DHT22;13961;51.178;4.448;2023-03-14T02:13:00;11.50;99.90
25949;DHT22;13961;51.178;4.448;2023-03-14T02:15:27;11.50;99.90
25949;DHT22;13961;51.178;4.448;2023-03-14T02:17:53;11.50;99.90
25949;DHT22;13961;51.178;4.448;2023-03-14T02:22:48;11.40;99.90
25949;DHT22;13961;51.178;4.448;2023-03-14T02:27:54;11.50;99.90
25949;DHT22;13961;51.178;4.448;2023-03-14T02:30:23;11.50;99.90
25949;DHT22;13961;51.178;4.448;2023-03-14T02:33:03;11.60;99.90
25949;DHT22;13961;51.178;4.448;2023-03-14T02:35:57;11.60;99.90
25949;DHT22;13961;51.178;4.448;2023-03-14T02:41:14;11.60;99.90
25949;DHT22;13961;51.178;4.448;2023-03-14T02:43:40;11.60;99.90
25949;DHT22;13961;51.178;4.448;2023-03-14T02:46:07;11.60;99.90
25949;DHT22;13961;51.178;4.448;2023-03-14T02:48:45;11.60;99.90
25949;DHT22;13961;51.178;4.448;2023-03-14T02:51:12;11.70;99.90
25949;DHT22;13961;51.178;4.448;2023-03-14T02:53:38;11.70;99.90
25949;DHT22;13961;51.178;4.448;2023-03-14T02:56:07;11.70;99.90
25949;DHT22;13961;51.178;4.448;2023-03-14T02:58:33;11.60;99.90
25949;DHT22;13961;51.178;4.448;2023-03-14T03:00:59;11.60;99.90
25949;DHT22;13961;51.178;4.448;2023-03-14T03:03:25;11.50;99.90
25949;DHT22;13961;51.178;4.448;2023-03-14T03:05:53;11.30;99.90
25949;DHT22;13961;51.178;4.448;2023-03-14T03:08:20;11.40;99.90
25949;DHT22;13961;51.178;4.448;2023-03-14T03:10:47;11.40;99.90
25949;DHT22;13961;51.178;4.448;2023-03-14T03:13:13;11.30;99.90
25949;DHT22;13961;51.178;4.448;2023-03-14T03:15:38;11.30;99.90
25949;DHT22;13961;51.178;4.448;2023-03-14T03:18:05;11.30;99.90
25949;DHT22;13961;51.178;4.448;2023-03-14T03:20:30;11.20;99.90
25949;DHT22;13961;51.178;4.448;2023-03-14T03:22:56;11.20;99.90
25949;DHT22;13961;51.178;4.448;2023-03-14T03:25:22;11.20;99.90
25949;DHT22;13961;51.178;4.448;2023-03-14T03:27:47;11.10;99.90
25949;DHT22;13961;51.178;4.448;2023-03-14T03:30:13;11.00;99.90
25949;DHT22;13961;51.178;4.448;2023-03-14T03:32:39;11.00;99.90
25949;DHT22;13961;51.178;4.448;2023-03-14T03:35:05;11.10;99.90
25949;DHT22;13961;51.178;4.448;2023-03-14T03:37:32;11.10;99.90
25949;DHT22;13961;51.178;4.448;2023-03-14T03:39:58;11.00;99.90
25949;DHT22;13961;51.178;4.448;2023-03-14T03:42:26;11.00;99.90
25949;DHT22;13961;51.178;4.448;2023-03-14T03:44:52;11.00;99.90
25949;DHT22;13961;51.178;4.448;2023-03-14T03:47:18;11.00;99.90
25949;DHT22;13961;51.178;4.448;2023-03-14T03:49:44;11.00;99.90
25949;DHT22;13961;51.178;4.448;2023-03-14T03:52:10;10.90;99.90
25949;DHT22;13961;51.178;4.448;2023-03-14T03:54:36;11.10;99.90
25949;DHT22;13961;51.178;4.448;2023-03-14T03:57:01;11.10;99.90
25949;DHT22;13961;51.178;4.448;2023-03-14T03:59:27;10.90;99.90
25949;DHT22;13961;51.178;4.448;2023-03-14T04:01:53;10.90;99.90
25949;DHT22;13961;51.178;4.448;2023-03-14T04:04:18;10.90;99.90
25949;DHT22;13961;51.178;4.448;2023-03-14T04:06:44;10.90;99.90
25949;DHT22;13961;51.178;4.448;2023-03-14T04:09:10;10.90;99.90
25949;DHT22;13961;51.178;4.448;2023-03-14T04:11:36;10.80;99.90
25949;DHT22;13961;51.178;4.448;2023-03-14T04:14:03;10.90;99.90
25949;DHT22;13961;51.178;4.448;2023-03-14T04:16:29;11.00;99.90
25949;DHT22;13961;51.178;4.448;2023-03-14T04:18:57;11.00;99.90
25949;DHT22;13961;51.178;4.448;2023-03-14T04:21:24;11.00;99.90
25949;DHT22;13961;51.178;4.448;2023-03-14T04:23:50;11.10;99.90
25949;DHT22;13961;51.178;4.448;2023-03-14T04:26:16;11.10;99.90
25949;DHT22;13961;51.178;4.448;2023-03-14T04:28:42;11.10;99.90
25949;DHT22;13961;51.178;4.448;2023-03-14T04:31:16;11.00;99.90
25949;DHT22;13961;51.178;4.448;2023-03-14T04:33:42;11.10;99.90
25949;DHT22;13961;51.178;4.448;2023-03-14T04:36:08;11.10;99.90
25949;DHT22;13961;51.178;4.448;2023-03-14T04:38:34;11.00;99.90
25949;DHT22;13961;51.178;4.448;2023-03-14T04:41:00;10.90;99.90
25949;DHT22;13961;51.178;4.448;2023-03-14T04:43:26;10.90;99.90
25949;DHT22;13961;51.178;4.448;2023-03-14T04:45:57;11.00;99.90
25949;DHT22;13961;51.178;4.448;2023-03-14T04:48:23;11.00;99.90
25949;DHT22;13961;51.178;4.448;2023-03-14T04:50:50;11.20;99.90
25949;DHT22;13961;51.178;4.448;2023-03-14T04:53:16;11.20;99.90
25949;DHT22;13961;51.178;4.448;2023-03-14T04:55:42;11.20;99.90
25949;DHT22;13961;51.178;4.448;2023-03-14T04:58:08;11.20;99.90
25949;DHT22;13961;51.178;4.448;2023-03-14T05:00:33;11.00;99.90
25949;DHT22;13961;51.178;4.448;2023-03-14T05:02:59;11.10;99.90
25949;DHT22;13961;51.178;4.448;2023-03-14T05:05:25;11.10;99.90
25949;DHT22;13961;51.178;4.448;2023-03-14T05:07:51;11.10;99.90
25949;DHT22;13961;51.178;4.448;2023-03-14T05:10:16;11.10;99.90
25949;DHT22;13961;51.178;4.448;2023-03-14T05:12:42;11.10;99.90
25949;DHT22;13961;51.178;4.448;2023-03-14T05:15:08;11.10;99.90
25949;DHT22;13961;51.178;4.448;2023-03-14T05:17:35;11.10;99.90
25949;DHT22;13961;51.178;4.448;2023-03-14T05:20:01;11.00;99.90
25949;DHT22;13961;51.178;4.448;2023-03-14T05:22:29;10.90;99.90
25949;DHT22;13961;51.178;4.448;2023-03-14T05:24:55;11.00;99.90
25949;DHT22;13961;51.178;4.448;2023-03-14T05:27:22;11.10;99.90
25949;DHT22;13961;51.178;4.448;2023-03-14T05:29:48;11.20;99.90
25949;DHT22;13961;51.178;4.448;2023-03-14T05:32:14;11.30;99.90
25949;DHT22;13961;51.178;4.448;2023-03-14T05:34:39;11.20;99.90
25949;DHT22;13961;51.178;4.448;2023-03-14T05:37:05;11.20;99.90
25949;DHT22;13961;51.178;4.448;2023-03-14T05:39:32;11.20;99.90
25949;DHT22;13961;51.178;4.448;2023-03-14T05:41:57;11.20;99.90
25949;DHT22;13961;51.178;4.448;2023-03-14T05:44:23;11.20;99.90
25949;DHT22;13961;51.178;4.448;2023-03-14T05:46:49;11.30;99.90
25949;DHT22;13961;51.178;4.448;2023-03-14T05:49:15;11.30;99.90
25949;DHT22;13961;51.178;4.448;2023-03-14T05:51:40;11.20;99.90
25949;DHT22;13961;51.178;4.448;2023-03-14T05:54:06;11.20;99.90
25949;DHT22;13961;51.178;4.448;2023-03-14T05:56:32;11.30;99.90
25949;DHT22;13961;51.178;4.448;2023-03-14T05:58:58;11.30;99.90
25949;DHT22;13961;51.178;4.448;2023-03-14T06:01:24;11.30;99.90
25949;DHT22;13961;51.178;4.448;2023-03-14T06:03:49;11.30;99.90
25949;DHT22;13961;51.178;4.448;2023-03-14T06:06:15;11.30;99.90
25949;DHT22;13961;51.178;4.448;2023-03-14T06:08:42;11.20;99.90
25949;DHT22;13961;51.178;4.448;2023-03-14T06:11:07;11.10;99.90
25949;DHT22;13961;51.178;4.448;2023-03-14T06:13:34;11.00;99.90
25949;DHT22;13961;51.178;4.448;2023-03-14T06:16:00;11.10;99.90
25949;DHT22;13961;51.178;4.448;2023-03-14T06:18:25;11.10;99.90
25949;DHT22;13961;51.178;4.448;2023-03-14T06:20:54;11.10;99.90
25949;DHT22;13961;51.178;4.448;2023-03-14T06:23:21;11.10;99.90
25949;DHT22;13961;51.178;4.448;2023-03-14T06:25:46;11.20;99.90
25949;DHT22;13961;51.178;4.448;2023-03-14T06:28:12;11.20;99.90
25949;DHT22;13961;51.178;4.448;2023-03-14T06:30:38;11.30;99.90
25949;DHT22;13961;51.178;4.448;2023-03-14T06:33:04;11.20;99.90
25949;DHT22;13961;51.178;4.448;2023-03-14T06:35:30;10.90;99.90
25949;DHT22;13961;51.178;4.448;2023-03-14T06:37:56;10.20;99.90
25949;DHT22;13961;51.178;4.448;2023-03-14T06:40:22;9.50;99.90
25949;DHT22;13961;51.178;4.448;2023-03-14T06:42:48;8.90;99.90
25949;DHT22;13961;51.178;4.448;2023-03-14T06:45:14;8.70;99.90
25949;DHT22;13961;51.178;4.448;2023-03-14T06:47:40;8.70;99.90
25949;DHT22;13961;51.178;4.448;2023-03-14T06:50:08;8.60;99.90
25949;DHT22;13961;51.178;4.448;2023-03-14T06:52:34;8.70;99.90
25949;DHT22;13961;51.178;4.448;2023-03-14T06:55:00;8.70;99.90
25949;DHT22;13961;51.178;4.448;2023-03-14T06:57:25;8.70;99.90
25949;DHT22;13961;51.178;4.448;2023-03-14T06:59:51;8.60;99.90
25949;DHT22;13961;51.178;4.448;2023-03-14T07:02:17;8.70;99.90
25949;DHT22;13961;51.178;4.448;2023-03-14T07:04:43;8.60;99.90
25949;DHT22;13961;51.178;4.448;2023-03-14T07:07:08;8.60;99.90
25949;DHT22;13961;51.178;4.448;2023-03-14T07:09:34;8.50;99.90
25949;DHT22;13961;51.178;4.448;2023-03-14T07:12:00;8.40;99.90
25949;DHT22;13961;51.178;4.448;2023-03-14T07:14:25;8.20;99.90
25949;DHT22;13961;51.178;4.448;2023-03-14T07:16:51;8.10;99.90
25949;DHT22;13961;51.178;4.448;2023-03-14T07:19:17;8.10;99.90
25949;DHT22;13961;51.178;4.448;2023-03-14T07:21:43;8.10;99.90
25949;DHT22;13961;51.178;4.448;2023-03-14T07:24:09;8.00;99.90
25949;DHT22;13961;51.178;4.448;2023-03-14T07:26:35;7.90;99.90
25949;DHT22;13961;51.178;4.448;2023-03-14T07:29:00;8.00;99.90
25949;DHT22;13961;51.178;4.448;2023-03-14T07:31:29;8.00;99.90
25949;DHT22;13961;51.178;4.448;2023-03-14T07:33:55;8.00;99.90
25949;DHT22;13961;51.178;4.448;2023-03-14T07:36:21;8.20;99.90
25949;DHT22;13961;51.178;4.448;2023-03-14T07:38:47;8.00;99.90
25949;DHT22;13961;51.178;4.448;2023-03-14T07:41:13;8.00;99.90
25949;DHT22;13961;51.178;4.448;2023-03-14T07:43:39;7.90;99.90
25949;DHT22;13961;51.178;4.448;2023-03-14T07:46:05;7.90;99.90
25949;DHT22;13961;51.178;4.448;2023-03-14T07:48:31;7.90;99.90
25949;DHT22;13961;51.178;4.448;2023-03-14T07:50:57;7.80;99.90
25949;DHT22;13961;51.178;4.448;2023-03-14T07:53:23;7.90;99.90
25949;DHT22;13961;51.178;4.448;2023-03-14T07:55:51;8.00;99.90
25949;DHT22;13961;51.178;4.448;2023-03-14T07:58:17;8.00;99.90
25949;DHT22;13961;51.178;4.448;2023-03-14T08:00:43;8.00;99.90
25949;DHT22;13961;51.178;4.448;2023-03-14T08:03:09;8.00;99.90
25949;DHT22;13961;51.178;4.448;2023-03-14T08:05:36;8.20;99.90
25949;DHT22;13961;51.178;4.448;2023-03-14T08:08:03;8.30;99.90
25949;DHT22;13961;51.178;4.448;2023-03-14T08:10:29;8.40;99.90
25949;DHT22;13961;51.178;4.448;2023-03-14T08:12:56;8.50;99.90
25949;DHT22;13961;51.178;4.448;2023-03-14T08:15:23;8.50;99.90
25949;DHT22;13961;51.178;4.448;2023-03-14T08:17:50;8.50;99.90
25949;DHT22;13961;51.178;4.448;2023-03-14T08:20:24;8.60;99.90
25949;DHT22;13961;51.178;4.448;2023-03-14T08:22:50;8.60;99.90
25949;DHT22;13961;51.178;4.448;2023-03-14T08:25:16;8.60;99.90
25949;DHT22;13961;51.178;4.448;2023-03-14T08:27:42;8.70;99.90
25949;DHT22;13961;51.178;4.448;2023-03-14T08:30:11;8.70;99.90
25949;DHT22;13961;51.178;4.448;2023-03-14T08:32:37;8.60;99.90
25949;DHT22;13961;51.178;4.448;2023-03-14T08:35:04;8.70;99.90
25949;DHT22;13961;51.178;4.448;2023-03-14T08:37:34;8.80;99.90
25949;DHT22;13961;51.178;4.448;2023-03-14T08:40:04;8.80;99.90
25949;DHT22;13961;51.178;4.448;2023-03-14T08:42:36;8.70;99.90
25949;DHT22;13961;51.178;4.448;2023-03-14T08:45:13;8.60;99.90
25949;DHT22;13961;51.178;4.448;2023-03-14T08:47:39;8.50;99.90
25949;DHT22;13961;51.178;4.448;2023-03-14T08:50:06;8.60;99.90
25949;DHT22;13961;51.178;4.448;2023-03-14T08:52:32;8.60;99.90
25949;DHT22;13961;51.178;4.448;2023-03-14T08:54:58;8.40;99.90
25949;DHT22;13961;51.178;4.448;2023-03-14T08:57:25;8.30;99.90
25949;DHT22;13961;51.178;4.448;2023-03-14T08:59:54;8.30;99.90
25949;DHT22;13961;51.178;4.448;2023-03-14T09:02:21;8.30;99.90
25949;DHT22;13961;51.178;4.448;2023-03-14T09:04:47;8.10;99.90
25949;DHT22;13961;51.178;4.448;2023-03-14T09:07:12;8.30;99.90
25949;DHT22;13961;51.178;4.448;2023-03-14T09:09:38;8.50;99.90
25949;DHT22;13961;51.178;4.448;2023-03-14T09:12:04;8.70;99.90
25949;DHT22;13961;51.178;4.448;2023-03-14T09:14:30;8.70;99.90
25949;DHT22;13961;51.178;4.448;2023-03-14T09:16:57;8.70;99.90
25949;DHT22;13961;51.178;4.448;2023-03-14T09:19:23;8.60;99.90
25949;DHT22;13961;51.178;4.448;2023-03-14T09:21:49;8.60;99.90
25949;DHT22;13961;51.178;4.448;2023-03-14T09:24:15;8.50;99.90
25949;DHT22;13961;51.178;4.448;2023-03-14T09:26:42;8.60;99.90
25949;DHT22;13961;51.178;4.448;2023-03-14T09:29:08;8.70;99.90
25949;DHT22;13961;51.178;4.448;2023-03-14T09:31:35;8.80;99.90
25949;DHT22;13961;51.178;4.448;2023-03-14T09:34:01;8.90;99.90
25949;DHT22;13961;51.178;4.448;2023-03-14T09:36:28;9.10;99.90
25949;DHT22;13961;51.178;4.448;2023-03-14T09:38:53;9.00;99.90
25949;DHT22;13961;51.178;4.448;2023-03-14T09:41:28;8.80;99.90
25949;DHT22;13961;51.178;4.448;2023-03-14T09:44:16;8.50;99.90
25949;DHT22;13961;51.178;4.448;2023-03-14T09:46:46;8.60;99.90
25949;DHT22;13961;51.178;4.448;2023-03-14T09:49:35;8.30;99.90
25949;DHT22;13961;51.178;4.448;2023-03-14T09:52:11;8.30;99.90
25949;DHT22;13961;51.178;4.448;2023-03-14T09:54:52;8.30;99.90
25949;DHT22;13961;51.178;4.448;2023-03-14T09:57:23;8.30;99.90
25949;DHT22;13961;51.178;4.448;2023-03-14T09:59:51;8.10;99.90
25949;DHT22;13961;51.178;4.448;2023-03-14T10:02:23;7.90;99.90
25949;DHT22;13961;51.178;4.448;2023-03-14T10:04:51;7.90;99.90
25949;DHT22;13961;51.178;4.448;2023-03-14T10:07:27;8.10;99.90
25949;DHT22;13961;51.178;4.448;2023-03-14T10:09:54;8.20;99.90
25949;DHT22;13961;51.178;4.448;2023-03-14T10:12:21;8.20;99.90
25949;DHT22;13961;51.178;4.448;2023-03-14T10:14:55;8.30;99.90
25949;DHT22;13961;51.178;4.448;2023-03-14T10:17:21;8.50;99.90
25949;DHT22;13961;51.178;4.448;2023-03-14T10:19:55;8.70;99.90
25949;DHT22;13961;51.178;4.448;2023-03-14T10:22:24;8.90;99.90
25949;DHT22;13961;51.178;4.448;2023-03-14T10:24:57;8.60;99.90
25949;DHT22;13961;51.178;4.448;2023-03-14T10:27:30;8.90;99.90
25949;DHT22;13961;51.178;4.448;2023-03-14T10:30:02;9.00;99.90
25949;DHT22;13961;51.178;4.448;2023-03-14T10:32:36;9.10;99.90
25949;DHT22;13961;51.178;4.448;2023-03-14T10:37:59;9.20;99.90
25949;DHT22;13961;51.178;4.448;2023-03-14T10:40:47;9.40;99.90
25949;DHT22;13961;51.178;4.448;2023-03-14T10:43:18;9.30;99.90
25949;DHT22;13961;51.178;4.448;2023-03-14T10:45:58;9.20;99.90
25949;DHT22;13961;51.178;4.448;2023-03-14T10:48:32;9.70;99.90
25949;DHT22;13961;51.178;4.448;2023-03-14T10:53:24;10.40;99.90
25949;DHT22;13961;51.178;4.448;2023-03-14T10:55:51;10.30;99.90
25949;DHT22;13961;51.178;4.448;2023-03-14T11:00:59;10.40;99.90
25949;DHT22;13961;51.178;4.448;2023-03-14T11:03:29;10.50;99.90
25949;DHT22;13961;51.178;4.448;2023-03-14T11:08:52;10.50;99.90
25949;DHT22;13961;51.178;4.448;2023-03-14T11:11:23;10.30;99.90
25949;DHT22;13961;51.178;4.448;2023-03-14T11:19:17;10.50;99.90
25949;DHT22;13961;51.178;4.448;2023-03-14T11:22:05;10.90;99.90
25949;DHT22;13961;51.178;4.448;2023-03-14T11:27:48;10.60;99.90
25949;DHT22;13961;51.178;4.448;2023-03-14T11:30:23;10.20;99.90
25949;DHT22;13961;51.178;4.448;2023-03-14T11:35:31;9.50;99.90
25949;DHT22;13961;51.178;4.448;2023-03-14T11:40:50;8.00;99.90
25949;DHT22;13961;51.178;4.448;2023-03-14T11:43:23;7.70;99.90
25949;DHT22;13961;51.178;4.448;2023-03-14T11:45:56;7.40;99.90
25949;DHT22;13961;51.178;4.448;2023-03-14T11:48:32;7.30;99.90
25949;DHT22;13961;51.178;4.448;2023-03-14T11:51:04;7.40;99.90
25949;DHT22;13961;51.178;4.448;2023-03-14T11:53:47;7.70;99.90
25949;DHT22;13961;51.178;4.448;2023-03-14T11:59:29;8.00;99.90
25949;DHT22;13961;51.178;4.448;2023-03-14T12:04:42;8.20;99.90
25949;DHT22;13961;51.178;4.448;2023-03-14T12:07:19;8.40;99.90
25949;DHT22;13961;51.178;4.448;2023-03-14T12:09:46;8.40;99.90
25949;DHT22;13961;51.178;4.448;2023-03-14T12:12:19;8.70;99.90
25949;DHT22;13961;51.178;4.448;2023-03-14T12:14:55;9.00;99.90
25949;DHT22;13961;51.178;4.448;2023-03-14T12:17:34;9.20;99.90
25949;DHT22;13961;51.178;4.448;2023-03-14T12:20:04;9.40;99.90
25949;DHT22;13961;51.178;4.448;2023-03-14T12:22:41;9.40;99.90
25949;DHT22;13961;51.178;4.448;2023-03-14T12:30:32;9.10;99.90
25949;DHT22;13961;51.178;4.448;2023-03-14T12:35:44;8.10;99.90
25949;DHT22;13961;51.178;4.448;2023-03-14T12:41:17;7.50;99.90
25949;DHT22;13961;51.178;4.448;2023-03-14T12:43:45;7.70;99.90
25949;DHT22;13961;51.178;4.448;2023-03-14T12:51:29;8.40;99.90
25949;DHT22;13961;51.178;4.448;2023-03-14T12:57:09;8.70;99.90
25949;DHT22;13961;51.178;4.448;2023-03-14T12:59:48;8.80;99.90
25949;DHT22;13961;51.178;4.448;2023-03-14T13:02:23;8.60;99.90
25949;DHT22;13961;51.178;4.448;2023-03-14T13:07:32;8.30;99.90
25949;DHT22;13961;51.178;4.448;2023-03-14T13:13:13;8.30;99.90
25949;DHT22;13961;51.178;4.448;2023-03-14T13:15:43;8.50;99.90
25949;DHT22;13961;51.178;4.448;2023-03-14T13:20:54;8.70;99.90
25949;DHT22;13961;51.178;4.448;2023-03-14T13:23:25;8.80;99.90
25949;DHT22;13961;51.178;4.448;2023-03-14T13:25:51;8.90;99.90
25949;DHT22;13961;51.178;4.448;2023-03-14T13:28:18;8.90;99.90
25949;DHT22;13961;51.178;4.448;2023-03-14T13:30:47;8.90;99.90
25949;DHT22;13961;51.178;4.448;2023-03-14T13:33:21;8.90;99.90
25949;DHT22;13961;51.178;4.448;2023-03-14T13:35:59;9.00;99.90
25949;DHT22;13961;51.178;4.448;2023-03-14T13:38:27;9.00;99.90
25949;DHT22;13961;51.178;4.448;2023-03-14T13:40:57;9.10;99.90
25949;DHT22;13961;51.178;4.448;2023-03-14T13:48:30;9.40;99.90
25949;DHT22;13961;51.178;4.448;2023-03-14T13:51:03;9.40;99.90
25949;DHT22;13961;51.178;4.448;2023-03-14T13:53:31;9.30;99.90
25949;DHT22;13961;51.178;4.448;2023-03-14T13:55:57;9.40;99.90
25949;DHT22;13961;51.178;4.448;2023-03-14T13:58:28;9.60;99.90
25949;DHT22;13961;51.178;4.448;2023-03-14T14:01:05;9.50;99.90
25949;DHT22;13961;51.178;4.448;2023-03-14T14:03:39;9.50;99.90
25949;DHT22;13961;51.178;4.448;2023-03-14T14:06:10;9.20;99.90
25949;DHT22;13961;51.178;4.448;2023-03-14T14:08:41;9.30;99.90
25949;DHT22;13961;51.178;4.448;2023-03-14T14:11:16;9.30;99.90
25949;DHT22;13961;51.178;4.448;2023-03-14T14:13:42;9.20;99.90
25949;DHT22;13961;51.178;4.448;2023-03-14T14:16:08;9.20;99.90
25949;DHT22;13961;51.178;4.448;2023-03-14T14:18:35;9.10;99.90
25949;DHT22;13961;51.178;4.448;2023-03-14T14:21:02;9.20;99.90
25949;DHT22;13961;51.178;4.448;2023-03-14T14:23:28;9.00;96.70
25949;DHT22;13961;51.178;4.448;2023-03-14T14:25:56;8.70;98.10
25949;DHT22;13961;51.178;4.448;2023-03-14T14:28:31;8.80;98.10
25949;DHT22;13961;51.178;4.448;2023-03-14T14:31:15;8.60;95.60
25949;DHT22;13961;51.178;4.448;2023-03-14T14:33:53;8.50;94.20
25949;DHT22;13961;51.178;4.448;2023-03-14T14:36:32;8.50;94.70
25949;DHT22;13961;51.178;4.448;2023-03-14T14:39:19;8.50;96.80
25949;DHT22;13961;51.178;4.448;2023-03-14T14:41:47;8.40;99.40
25949;DHT22;13961;51.178;4.448;2023-03-14T14:44:17;8.60;96.90
25949;DHT22;13961;51.178;4.448;2023-03-14T14:46:43;8.70;97.70
25949;DHT22;13961;51.178;4.448;2023-03-14T14:49:13;8.80;99.30
25949;DHT22;13961;51.178;4.448;2023-03-14T14:51:52;9.00;97.60
25949;DHT22;13961;51.178;4.448;2023-03-14T14:54:38;9.00;97.40
25949;DHT22;13961;51.178;4.448;2023-03-14T14:57:18;8.90;98.70
25949;DHT22;13961;51.178;4.448;2023-03-14T14:59:48;8.70;99.90
25949;DHT22;13961;51.178;4.448;2023-03-14T15:02:38;8.80;99.90
25949;DHT22;13961;51.178;4.448;2023-03-14T15:05:17;8.80;99.90
25949;DHT22;13961;51.178;4.448;2023-03-14T15:07:44;8.70;99.90
25949;DHT22;13961;51.178;4.448;2023-03-14T15:10:15;8.70;99.90
25949;DHT22;13961;51.178;4.448;2023-03-14T15:12:41;8.40;99.90
25949;DHT22;13961;51.178;4.448;2023-03-14T15:15:08;8.30;99.90
25949;DHT22;13961;51.178;4.448;2023-03-14T15:17:34;8.10;99.90
25949;DHT22;13961;51.178;4.448;2023-03-14T15:20:05;8.20;99.90
25949;DHT22;13961;51.178;4.448;2023-03-14T15:22:32;8.30;99.90
25949;DHT22;13961;51.178;4.448;2023-03-14T15:24:57;8.40;99.90
25949;DHT22;13961;51.178;4.448;2023-03-14T15:27:23;8.60;99.90
25949;DHT22;13961;51.178;4.448;2023-03-14T15:29:50;8.20;99.90
25949;DHT22;13961;51.178;4.448;2023-03-14T15:32:17;8.20;99.90
25949;DHT22;13961;51.178;4.448;2023-03-14T15:34:44;8.30;99.90
25949;DHT22;13961;51.178;4.448;2023-03-14T15:37:15;8.10;99.90
25949;DHT22;13961;51.178;4.448;2023-03-14T15:39:42;8.10;99.90
25949;DHT22;13961;51.178;4.448;2023-03-14T15:42:08;8.40;99.90
25949;DHT22;13961;51.178;4.448;2023-03-14T15:44:34;8.30;99.90
25949;DHT22;13961;51.178;4.448;2023-03-14T15:47:00;8.30;99.90
25949;DHT22;13961;51.178;4.448;2023-03-14T15:49:26;8.30;99.90
25949;DHT22;13961;51.178;4.448;2023-03-14T15:51:51;8.10;99.90
25949;DHT22;13961;51.178;4.448;2023-03-14T15:54:17;8.10;99.90
25949;DHT22;13961;51.178;4.448;2023-03-14T15:56:43;8.00;99.90
25949;DHT22;13961;51.178;4.448;2023-03-14T15:59:08;7.80;99.90
25949;DHT22;13961;51.178;4.448;2023-03-14T16:01:34;7.80;99.90
25949;DHT22;13961;51.178;4.448;2023-03-14T16:04:02;7.80;99.90
25949;DHT22;13961;51.178;4.448;2023-03-14T16:06:29;7.80;99.90
25949;DHT22;13961;51.178;4.448;2023-03-14T16:08:56;7.90;99.90
25949;DHT22;13961;51.178;4.448;2023-03-14T16:11:22;7.90;99.90
25949;DHT22;13961;51.178;4.448;2023-03-14T16:13:49;7.90;99.90
25949;DHT22;13961;51.178;4.448;2023-03-14T16:16:15;8.00;99.90
25949;DHT22;13961;51.178;4.448;2023-03-14T16:18:41;7.90;99.90
25949;DHT22;13961;51.178;4.448;2023-03-14T16:21:12;7.70;99.90
25949;DHT22;13961;51.178;4.448;2023-03-14T16:23:38;7.80;99.90
25949;DHT22;13961;51.178;4.448;2023-03-14T16:26:12;7.90;99.90
25949;DHT22;13961;51.178;4.448;2023-03-14T16:28:38;8.00;99.90
25949;DHT22;13961;51.178;4.448;2023-03-14T16:31:09;8.00;99.90
25949;DHT22;13961;51.178;4.448;2023-03-14T16:33:38;7.90;99.90
25949;DHT22;13961;51.178;4.448;2023-03-14T16:36:05;8.10;99.90
25949;DHT22;13961;51.178;4.448;2023-03-14T16:38:36;8.20;99.90
25949;DHT22;13961;51.178;4.448;2023-03-14T16:41:14;8.20;99.90
25949;DHT22;13961;51.178;4.448;2023-03-14T16:43:40;8.30;99.90
25949;DHT22;13961;51.178;4.448;2023-03-14T16:46:09;8.30;99.90
25949;DHT22;13961;51.178;4.448;2023-03-14T16:48:36;8.00;99.90
25949;DHT22;13961;51.178;4.448;2023-03-14T16:51:03;8.00;99.90
25949;DHT22;13961;51.178;4.448;2023-03-14T16:53:28;8.10;99.90
25949;DHT22;13961;51.178;4.448;2023-03-14T16:55:55;7.90;99.90
25949;DHT22;13961;51.178;4.448;2023-03-14T16:58:21;7.90;99.90
25949;DHT22;13961;51.178;4.448;2023-03-14T17:00:47;7.90;99.90